Time;durP1;ratioP1;P1;durP2;ratioP2;P2;SDS_P1;SDS_P2;PMS_P1;PMS_P2;Temp;Humidity;BMP_temperature;BMP_pressure;BME280_temperature;BME280_humidity;BME280_pressure;Samples;Min_cycle;Max_cycle;Signal;HPM_P1;HPM_P2
2023/06/06 00:00:48;;;;;;;13.50;5.13;;;;;;;27.48;45.37;97957.47;4961445;28;20769;-64
2023/06/06 00:03:20;;;;;;;11.13;4.32;;;;;;;27.51;46.46;97956.03;4968276;28;20561;-63
2023/06/06 00:05:50;;;;;;;10.93;4.82;;;;;;;27.47;47.50;97958.56;4967384;28;20062;-60
2023/06/06 00:08:23;;;;;;;12.68;5.45;;;;;;;27.48;47.65;97968.38;4952297;28;20398;-60
2023/06/06 00:10:53;;;;;;;13.27;4.95;;;;;;;27.46;47.17;97959.69;4961507;28;20076;-61
2023/06/06 00:13:22;;;;;;;14.68;5.20;;;;;;;27.44;47.67;97967.34;4950119;28;20054;-62
2023/06/06 00:15:53;;;;;;;8.82;4.50;;;;;;;27.39;47.16;97964.81;4955656;28;20047;-62
2023/06/06 00:18:23;;;;;;;15.82;5.03;;;;;;;27.42;48.28;97964.16;4976823;28;20046;-62
2023/06/06 00:20:53;;;;;;;19.85;5.03;;;;;;;27.41;48.31;97968.00;4978737;28;20051;-62
2023/06/06 00:23:23;;;;;;;10.23;4.93;;;;;;;27.34;48.97;97964.97;4975429;28;20038;-62
2023/06/06 00:25:55;;;;;;;14.10;5.13;;;;;;;27.36;49.48;97979.03;4978248;28;20051;-62
2023/06/06 00:28:24;;;;;;;16.60;5.60;;;;;;;27.34;48.80;97973.13;4959568;28;20116;-60
2023/06/06 00:30:54;;;;;;;14.23;5.18;;;;;;;27.33;48.39;97978.88;4960763;28;20066;-60
2023/06/06 00:33:24;;;;;;;12.50;5.35;;;;;;;27.21;45.75;97976.78;4954176;28;20046;-60
2023/06/06 00:35:54;;;;;;;15.00;5.70;;;;;;;27.25;47.73;97975.84;4974808;28;20054;-62
2023/06/06 00:38:23;;;;;;;12.35;5.43;;;;;;;27.34;48.34;97973.13;4959613;28;20046;-61
2023/06/06 00:40:53;;;;;;;12.80;5.35;;;;;;;27.39;49.08;97972.97;4976220;28;20137;-60
2023/06/06 00:43:23;;;;;;;17.10;6.00;;;;;;;27.40;50.03;97981.91;4956747;28;20070;-61
2023/06/06 00:45:52;;;;;;;16.33;5.80;;;;;;;27.35;50.36;97977.41;4942366;28;20397;-61
2023/06/06 00:48:23;;;;;;;14.35;5.63;;;;;;;27.37;50.91;97986.06;4977085;28;20067;-62
2023/06/06 00:50:54;;;;;;;14.77;5.35;;;;;;;27.42;50.69;97985.91;4978016;28;20046;-61
2023/06/06 00:53:23;;;;;;;12.60;5.35;;;;;;;27.49;50.81;97977.28;4974410;28;20088;-61
2023/06/06 00:55:53;;;;;;;14.40;5.13;;;;;;;27.49;50.45;97975.38;4945125;28;20126;-62
2023/06/06 00:58:22;;;;;;;8.82;5.75;;;;;;;27.56;50.17;97983.88;4953539;28;20154;-62
2023/06/06 01:00:51;;;;;;;16.30;5.78;;;;;;;27.64;48.43;97988.50;4958414;28;20109;-61
2023/06/06 01:03:26;;;;;;;15.93;6.50;;;;;;;27.75;46.23;97983.53;4958137;28;20054;-62
2023/06/06 01:05:56;;;;;;;11.82;6.20;;;;;;;27.83;47.50;97992.81;4961667;28;20043;-62
2023/06/06 01:08:26;;;;;;;15.05;6.13;;;;;;;27.85;46.76;97998.72;4956714;28;20077;-63
2023/06/06 01:11:06;;;;;;;17.52;6.30;;;;;;;27.71;46.83;98001.63;4958375;28;20051;-62
2023/06/06 01:13:39;;;;;;;10.90;5.38;;;;;;;27.85;44.23;98004.19;4951472;28;20050;-62
2023/06/06 01:16:18;;;;;;;11.97;4.83;;;;;;;27.94;45.11;98002.25;4958815;28;20051;-61
2023/06/06 01:18:49;;;;;;;12.27;5.00;;;;;;;27.94;45.21;98000.31;4954842;28;20150;-64
2023/06/06 01:21:19;;;;;;;15.77;5.50;;;;;;;28.00;47.42;98007.22;4958331;28;20138;-61
2023/06/06 01:23:50;;;;;;;7.78;4.90;;;;;;;28.07;44.47;98009.44;4969173;28;20144;-64
2023/06/06 01:26:22;;;;;;;15.15;5.30;;;;;;;28.16;44.45;98012.97;4957216;28;20451;-64
2023/06/06 01:28:52;;;;;;;13.05;5.55;;;;;;;28.09;45.04;98010.72;4959354;28;20169;-63
2023/06/06 01:31:24;;;;;;;16.95;5.57;;;;;;;28.16;45.36;98021.13;4958241;28;20051;-63
2023/06/06 01:34:01;;;;;;;12.13;5.22;;;;;;;28.24;45.90;98017.59;4954765;28;20794;-62
2023/06/06 01:36:39;;;;;;;10.63;4.95;;;;;;;28.24;46.90;98012.13;4959023;28;20043;-63
2023/06/06 01:39:15;;;;;;;9.98;4.97;;;;;;;28.39;45.09;98022.53;4956594;28;20046;-62
2023/06/06 01:41:48;;;;;;;10.95;5.20;;;;;;;28.42;45.54;98029.25;4958551;28;20045;-61
2023/06/06 01:44:18;;;;;;;20.10;6.18;;;;;;;28.39;47.10;98029.91;4959680;28;20043;-64
2023/06/06 01:46:48;;;;;;;12.32;6.00;;;;;;;28.46;45.22;98033.72;4957906;28;20145;-65
2023/06/06 01:49:18;;;;;;;15.50;6.15;;;;;;;28.68;43.89;98032.69;4957668;28;20061;-65
2023/06/06 01:51:48;;;;;;;12.32;6.00;;;;;;;28.99;44.40;98037.84;4956328;28;20050;-62
2023/06/06 01:54:17;;;;;;;16.38;6.65;;;;;;;29.11;43.87;98032.53;4941227;28;20061;-64
2023/06/06 01:56:47;;;;;;;14.35;6.82;;;;;;;29.34;42.50;98038.50;4951946;28;20074;-61
2023/06/06 01:59:17;;;;;;;13.02;6.13;;;;;;;29.57;41.91;98037.03;4940554;28;20076;-61
2023/06/06 02:01:47;;;;;;;18.95;6.47;;;;;;;29.89;40.07;98052.72;4954816;28;20054;-60
2023/06/06 02:04:17;;;;;;;13.23;7.20;;;;;;;30.05;41.14;98057.59;4949878;28;20581;-61
2023/06/06 02:06:46;;;;;;;14.88;7.05;;;;;;;30.17;41.23;98058.44;4954905;28;20360;-61
2023/06/06 02:09:16;;;;;;;11.27;6.03;;;;;;;30.38;40.73;98060.31;4959481;28;20162;-61
2023/06/06 02:11:46;;;;;;;13.63;5.35;;;;;;;30.37;39.57;98066.91;4955604;28;20047;-63
2023/06/06 02:14:16;;;;;;;13.98;4.97;;;;;;;30.46;40.50;98068.44;4955810;28;20542;-63
2023/06/06 02:16:48;;;;;;;7.88;4.20;;;;;;;30.78;38.77;98077.75;4966069;28;20042;-62
2023/06/06 02:19:17;;;;;;;7.30;4.70;;;;;;;31.16;39.52;98088.38;4949422;28;20487;-63
2023/06/06 02:21:48;;;;;;;13.10;4.05;;;;;;;31.59;39.14;98090.56;4953663;28;20415;-63
2023/06/06 02:24:18;;;;;;;10.70;4.82;;;;;;;31.57;37.13;98101.06;4955004;28;20141;-63
2023/06/06 02:26:48;;;;;;;9.05;3.97;;;;;;;32.12;37.88;98102.31;4957069;28;20478;-64
2023/06/06 02:29:18;;;;;;;14.13;4.85;;;;;;;32.39;37.92;98104.28;4951550;28;20051;-64
2023/06/06 02:31:48;;;;;;;13.57;4.32;;;;;;;32.43;37.02;98105.97;4958122;28;20051;-65
2023/06/06 02:34:18;;;;;;;10.63;4.65;;;;;;;32.70;35.86;98112.59;4957645;28;20077;-64
2023/06/06 02:36:49;;;;;;;10.50;4.45;;;;;;;32.62;36.10;98110.78;4949895;28;20162;-64
2023/06/06 02:39:18;;;;;;;10.27;4.65;;;;;;;32.77;36.46;98114.72;4964716;28;20057;-64
2023/06/06 02:41:48;;;;;;;8.20;4.07;;;;;;;32.98;36.03;98107.03;4958348;28;20042;-62
2023/06/06 02:44:19;;;;;;;12.40;4.38;;;;;;;33.20;35.60;98108.38;4967524;28;20053;-63
2023/06/06 02:46:49;;;;;;;6.70;4.22;;;;;;;32.75;36.28;98115.06;4947950;28;20050;-62
2023/06/06 02:49:18;;;;;;;12.70;4.80;;;;;;;32.15;36.79;98120.81;4960258;28;20057;-63
2023/06/06 02:51:48;;;;;;;10.98;4.30;;;;;;;32.65;36.42;98117.53;4963007;28;20047;-63
2023/06/06 02:54:20;;;;;;;8.18;4.13;;;;;;;32.87;36.75;98125.19;4950800;28;20074;-64
2023/06/06 02:56:49;;;;;;;9.95;4.55;;;;;;;32.60;36.22;98129.53;4961916;28;20054;-62
2023/06/06 02:59:19;;;;;;;8.75;4.35;;;;;;;32.96;37.03;98120.31;4976471;28;20070;-64
2023/06/06 03:01:49;;;;;;;15.32;4.32;;;;;;;32.96;37.25;98118.38;4963604;28;20057;-62
2023/06/06 03:04:21;;;;;;;10.43;4.53;;;;;;;32.49;36.83;98121.00;4963431;28;20062;-62
2023/06/06 03:06:50;;;;;;;13.93;4.32;;;;;;;32.36;37.10;98121.41;4962809;28;20131;-63
2023/06/06 03:09:20;;;;;;;12.02;5.03;;;;;;;32.77;36.17;98117.47;4962502;28;20055;-64
2023/06/06 03:11:49;;;;;;;7.95;4.22;;;;;;;32.94;36.15;98125.34;4961376;28;20046;-61
2023/06/06 03:14:20;;;;;;;10.05;4.50;;;;;;;32.78;36.00;98121.81;4955633;28;20063;-61
2023/06/06 03:16:51;;;;;;;10.45;4.50;;;;;;;33.10;36.47;98128.13;4961412;28;20050;-62
2023/06/06 03:19:23;;;;;;;6.75;4.60;;;;;;;32.96;35.34;98128.53;4960897;28;20141;-64
2023/06/06 03:21:55;;;;;;;8.93;3.83;;;;;;;33.08;35.61;98127.66;4959401;28;20540;-62
2023/06/06 03:24:28;;;;;;;11.18;4.03;;;;;;;33.04;37.06;98127.56;4960643;28;20043;-61
2023/06/06 03:26:58;;;;;;;8.80;4.25;;;;;;;32.51;39.10;98129.69;4960667;28;20133;-64
2023/06/06 03:29:28;;;;;;;8.35;4.05;;;;;;;32.68;37.96;98145.06;4957358;28;20047;-63
2023/06/06 03:31:58;;;;;;;8.25;4.25;;;;;;;32.75;36.95;98133.47;4960348;28;20051;-61
2023/06/06 03:34:29;;;;;;;9.88;4.03;;;;;;;32.44;36.54;98134.19;4959481;28;20046;-62
2023/06/06 03:37:01;;;;;;;7.18;4.35;;;;;;;33.14;36.13;98135.31;4960347;28;20102;-63
2023/06/06 03:39:30;;;;;;;8.15;4.05;;;;;;;32.97;37.04;98135.63;4968599;28;20116;-63
2023/06/06 03:42:00;;;;;;;9.35;3.88;;;;;;;33.24;36.37;98131.22;4960763;28;20130;-63
2023/06/06 03:44:29;;;;;;;9.45;4.50;;;;;;;33.17;35.60;98129.09;4969929;28;20485;-62
2023/06/06 03:47:00;;;;;;;12.13;4.30;;;;;;;32.88;36.39;98138.53;4960532;28;20054;-62
2023/06/06 03:49:36;;;;;;;8.75;4.10;;;;;;;33.05;36.05;98136.59;4973162;28;20052;-64
2023/06/06 03:52:05;;;;;;;10.35;4.03;;;;;;;32.92;35.44;98141.38;4952834;28;20148;-61
2023/06/06 03:54:37;;;;;;;6.82;4.07;;;;;;;33.40;35.37;98145.75;4959745;28;20067;-61
2023/06/06 03:57:11;;;;;;;11.45;4.20;;;;;;;32.93;36.46;98157.47;4959877;28;20077;-62
2023/06/06 03:59:41;;;;;;;7.85;4.20;;;;;;;33.19;36.04;98147.97;4955914;28;20050;-62
2023/06/06 04:02:11;;;;;;;11.45;3.92;;;;;;;33.81;36.43;98147.91;4954843;28;20702;-63
2023/06/06 04:04:41;;;;;;;7.25;4.13;;;;;;;34.00;35.64;98160.09;4958312;28;20115;-62
2023/06/06 04:07:12;;;;;;;8.85;4.03;;;;;;;33.33;34.15;98167.53;4959897;28;20752;-64
2023/06/06 04:09:42;;;;;;;11.55;3.70;;;;;;;33.87;34.33;98164.13;4961436;28;20158;-62
2023/06/06 04:12:12;;;;;;;11.30;3.85;;;;;;;33.82;34.93;98159.69;4959488;28;20057;-62
2023/06/06 04:14:42;;;;;;;9.27;3.85;;;;;;;33.79;34.23;98158.47;4955771;28;20054;-62
2023/06/06 04:17:11;;;;;;;13.30;3.83;;;;;;;34.01;34.25;98147.94;4957313;28;20057;-63
2023/06/06 04:19:41;;;;;;;12.18;3.63;;;;;;;34.20;32.53;98148.00;4961076;28;20054;-62
2023/06/06 04:22:11;;;;;;;9.52;4.20;;;;;;;34.48;34.24;98156.81;4956876;28;20050;-61
2023/06/06 04:24:42;;;;;;;7.57;3.75;;;;;;;34.28;33.14;98150.53;4976675;28;20054;-61
2023/06/06 04:27:13;;;;;;;17.35;4.38;;;;;;;34.26;33.27;98146.53;4967755;28;20042;-62
2023/06/06 04:29:44;;;;;;;16.20;4.20;;;;;;;34.63;33.17;98150.44;4956531;28;20137;-63
2023/06/06 04:32:19;;;;;;;8.02;3.60;;;;;;;34.82;32.87;98151.59;4957435;28;20057;-59
2023/06/06 04:34:51;;;;;;;11.50;3.65;;;;;;;34.71;32.83;98154.94;4956904;28;20046;-63
2023/06/06 04:37:24;;;;;;;10.38;4.20;;;;;;;34.89;33.69;98151.72;4960657;28;20090;-61
2023/06/06 04:39:56;;;;;;;10.63;3.67;;;;;;;34.91;32.90;98158.47;4960459;28;20479;-62
2023/06/06 04:42:32;;;;;;;11.80;3.72;;;;;;;34.26;34.22;98158.34;4959754;28;20149;-64
2023/06/06 04:45:06;;;;;;;14.68;3.92;;;;;;;34.58;32.36;98158.97;4973038;28;20428;-64
2023/06/06 04:47:37;;;;;;;7.57;4.32;;;;;;;34.94;34.31;98152.22;4966198;28;20054;-64
2023/06/06 04:50:08;;;;;;;19.15;6.90;;;;;;;34.86;33.08;98152.47;4962210;28;20050;-63
2023/06/06 04:52:38;;;;;;;13.52;5.95;;;;;;;34.92;32.52;98145.50;4961376;28;20509;-63
2023/06/06 04:55:08;;;;;;;10.50;4.72;;;;;;;35.38;32.96;98146.28;4978128;28;20053;-63
2023/06/06 04:57:37;;;;;;;12.73;3.95;;;;;;;34.87;32.10;98141.09;4974733;28;20050;-63
2023/06/06 05:00:09;;;;;;;11.25;4.50;;;;;;;34.65;31.43;98134.34;4972853;28;20466;-63
2023/06/06 05:02:40;;;;;;;22.73;5.60;;;;;;;35.59;35.06;98143.88;4977363;28;20053;-63
2023/06/06 05:05:09;;;;;;;11.75;3.95;;;;;;;34.69;32.59;98129.75;4975014;28;20054;-62
2023/06/06 05:07:39;;;;;;;9.43;4.20;;;;;;;35.05;32.09;98133.16;4976827;28;20050;-64
2023/06/06 05:10:09;;;;;;;8.23;4.00;;;;;;;35.15;31.19;98136.09;4971114;28;20174;-62
2023/06/06 05:12:39;;;;;;;12.88;4.32;;;;;;;35.40;31.22;98138.47;4967156;28;20043;-61
2023/06/06 05:15:09;;;;;;;14.25;4.35;;;;;;;35.87;30.57;98149.03;4967164;28;20050;-62
2023/06/06 05:17:38;;;;;;;8.02;3.92;;;;;;;35.80;33.64;98148.94;4966008;28;20046;-60
2023/06/06 05:20:10;;;;;;;10.65;4.38;;;;;;;35.09;31.57;98142.25;4967607;28;20058;-60
2023/06/06 05:22:41;;;;;;;10.50;4.13;;;;;;;35.71;33.03;98142.91;4967641;28;20534;-61
2023/06/06 05:25:10;;;;;;;12.27;4.68;;;;;;;35.38;30.96;98144.34;4957412;28;20046;-61
2023/06/06 05:27:42;;;;;;;12.43;4.35;;;;;;;35.64;30.76;98138.06;4967209;28;20065;-61
2023/06/06 05:30:12;;;;;;;9.40;3.33;;;;;;;35.94;31.02;98135.34;4966655;28;20132;-61
2023/06/06 05:32:41;;;;;;;6.07;3.75;;;;;;;35.64;29.85;98131.72;4967993;28;20047;-61
2023/06/06 05:35:10;;;;;;;6.78;4.30;;;;;;;35.99;32.12;98127.53;4967288;28;20070;-61
2023/06/06 05:37:42;;;;;;;12.15;4.10;;;;;;;35.51;31.14;98129.19;4943990;28;20077;-61
2023/06/06 05:40:13;;;;;;;12.57;4.00;;;;;;;35.77;30.63;98128.41;4966732;28;20051;-61
2023/06/06 05:42:42;;;;;;;9.77;4.65;;;;;;;35.78;32.05;98126.47;4957567;28;20038;-62
2023/06/06 05:45:15;;;;;;;7.93;3.90;;;;;;;36.26;33.38;98122.78;4966144;28;20043;-62
2023/06/06 05:47:45;;;;;;;10.90;4.03;;;;;;;36.35;30.85;98109.50;4966566;28;20043;-61
2023/06/06 05:50:14;;;;;;;13.73;3.80;;;;;;;35.98;32.19;98103.13;4965912;28;20487;-61
2023/06/06 05:52:44;;;;;;;15.20;4.25;;;;;;;36.12;32.12;98108.03;4966615;28;20043;-61
2023/06/06 05:55:27;;;;;;;16.08;3.75;;;;;;;36.11;30.16;98100.91;4949907;28;20043;-61
2023/06/06 05:57:57;;;;;;;11.27;4.20;;;;;;;35.62;32.51;98104.56;4965336;28;20038;-61
2023/06/06 06:00:29;;;;;;;15.18;4.10;;;;;;;35.53;30.45;98096.56;4963099;28;20057;-62
2023/06/06 06:03:00;;;;;;;10.82;3.65;;;;;;;36.03;30.53;98091.75;4962787;28;20054;-62
2023/06/06 06:05:31;;;;;;;9.07;4.05;;;;;;;36.10;33.38;98086.31;4967469;28;20110;-61
2023/06/06 06:08:02;;;;;;;10.85;3.72;;;;;;;36.41;32.72;98087.91;4967380;28;20046;-63
2023/06/06 06:10:34;;;;;;;10.30;4.15;;;;;;;36.72;32.45;98092.19;4967536;28;20117;-64
2023/06/06 06:13:04;;;;;;;6.38;3.67;;;;;;;36.41;31.13;98085.94;4967097;28;20057;-66
2023/06/06 06:15:35;;;;;;;14.40;3.95;;;;;;;36.41;32.05;98096.16;4966875;28;20050;-62
2023/06/06 06:18:05;;;;;;;5.95;3.53;;;;;;;36.31;30.94;98094.09;4963973;28;20065;-64
2023/06/06 06:20:34;;;;;;;8.60;3.42;;;;;;;36.56;31.51;98091.59;4955060;28;20175;-65
2023/06/06 06:23:04;;;;;;;8.27;4.07;;;;;;;35.91;31.67;98086.47;4961972;28;20043;-64
2023/06/06 06:25:37;;;;;;;6.88;3.45;;;;;;;36.55;31.81;98085.28;4961406;28;20050;-66
2023/06/06 06:28:18;;;;;;;18.63;3.72;;;;;;;36.62;31.27;98085.38;4966648;28;20113;-66
2023/06/06 06:30:48;;;;;;;12.68;4.05;;;;;;;36.50;31.72;98095.88;4967467;28;20055;-63
2023/06/06 06:33:18;;;;;;;8.30;4.13;;;;;;;36.53;30.98;98095.91;4966088;28;20050;-64
2023/06/06 06:35:47;;;;;;;13.32;4.05;;;;;;;36.21;30.68;98089.22;4967542;28;20057;-63
2023/06/06 06:38:17;;;;;;;6.93;3.20;;;;;;;35.81;30.86;98092.63;4960921;28;20050;-65
2023/06/06 06:40:46;;;;;;;14.93;3.83;;;;;;;36.13;31.30;98088.34;4954265;28;20062;-64
2023/06/06 06:43:16;;;;;;;9.85;3.42;;;;;;;36.52;30.72;98074.19;4966829;28;20050;-64
2023/06/06 06:45:56;;;;;;;17.88;3.40;;;;;;;36.63;31.35;98075.94;4958221;28;20141;-64
2023/06/06 06:48:25;;;;;;;6.07;3.40;;;;;;;36.60;34.04;98075.91;4966643;28;20437;-66
2023/06/06 06:50:55;;;;;;;12.25;3.60;;;;;;;36.76;32.90;98066.19;4967038;28;20050;-64
2023/06/06 06:53:30;;;;;;;7.22;4.25;;;;;;;36.49;31.19;98056.44;4957418;28;20050;-63
2023/06/06 06:55:59;;;;;;;11.00;4.00;;;;;;;36.50;31.75;98060.78;4971640;28;20086;-63
2023/06/06 06:58:33;;;;;;;8.48;3.05;;;;;;;36.71;31.42;98060.22;4969566;28;20153;-64
2023/06/06 07:01:03;;;;;;;8.77;3.47;;;;;;;37.00;29.56;98055.75;4958766;28;20061;-67
2023/06/06 07:03:35;;;;;;;6.97;3.78;;;;;;;36.81;31.84;98063.09;4969172;28;20475;-65
2023/06/06 07:06:08;;;;;;;11.60;4.30;;;;;;;36.73;32.08;98060.66;4941460;28;20057;-63
2023/06/06 07:08:37;;;;;;;8.63;3.13;;;;;;;36.76;30.81;98051.59;4966883;28;20053;-65
2023/06/06 07:11:07;;;;;;;5.75;3.47;;;;;;;36.94;31.43;98055.31;4965514;28;20050;-65
2023/06/06 07:13:37;;;;;;;7.32;3.80;;;;;;;36.88;31.44;98052.09;4965908;28;20047;-65
2023/06/06 07:16:08;;;;;;;8.25;3.38;;;;;;;36.65;29.17;98057.00;4965717;28;20061;-64
2023/06/06 07:18:38;;;;;;;9.10;3.65;;;;;;;36.44;31.33;98043.78;4965908;28;20360;-64
2023/06/06 07:21:08;;;;;;;10.20;3.65;;;;;;;36.44;29.58;98038.25;4966182;28;20141;-65
2023/06/06 07:23:39;;;;;;;8.13;3.25;;;;;;;36.37;31.23;98027.16;4965708;28;20120;-64
2023/06/06 07:26:10;;;;;;;10.85;3.30;;;;;;;36.51;30.40;98012.72;4956005;28;20357;-64
2023/06/06 07:28:39;;;;;;;11.55;3.85;;;;;;;36.66;29.96;98008.13;4967126;28;20050;-63
2023/06/06 07:31:10;;;;;;;13.63;4.00;;;;;;;36.56;29.08;98008.81;4968322;28;20061;-65
2023/06/06 07:33:40;;;;;;;6.22;3.20;;;;;;;36.07;30.44;98017.34;4968912;28;20050;-66
2023/06/06 07:36:10;;;;;;;10.18;3.45;;;;;;;36.16;29.95;98013.13;4961338;28;20058;-65
2023/06/06 07:38:40;;;;;;;15.40;3.88;;;;;;;36.07;30.61;98001.56;4970231;28;20133;-64
2023/06/06 07:41:09;;;;;;;12.05;4.00;;;;;;;36.28;31.04;98006.56;4969600;28;20059;-68
2023/06/06 07:43:39;;;;;;;8.60;3.67;;;;;;;36.40;31.31;98001.56;4970400;28;20109;-65
2023/06/06 07:46:09;;;;;;;10.18;4.00;;;;;;;36.40;30.70;97998.81;4969421;28;20043;-64
2023/06/06 07:48:38;;;;;;;7.97;3.92;;;;;;;36.81;31.72;98001.56;4970276;28;20051;-65
2023/06/06 07:51:08;;;;;;;11.18;3.65;;;;;;;36.26;30.61;98000.63;4969465;28;20038;-64
2023/06/06 07:53:41;;;;;;;13.23;3.70;;;;;;;36.52;30.42;97994.16;4968360;28;20471;-64
2023/06/06 07:56:13;;;;;;;8.43;3.58;;;;;;;36.30;30.50;98004.22;4969772;28;20049;-64
2023/06/06 07:58:53;;;;;;;17.33;5.70;;;;;;;36.62;32.38;97996.28;4945503;28;20050;-65
2023/06/06 08:01:25;;;;;;;15.50;4.30;;;;;;;36.67;30.05;97995.94;4957416;28;20133;-64
2023/06/06 08:03:55;;;;;;;12.63;4.15;;;;;;;36.80;32.17;97988.94;4970283;28;20066;-66
2023/06/06 08:06:27;;;;;;;9.45;3.83;;;;;;;36.79;31.62;97981.81;4969149;28;20137;-64
2023/06/06 08:08:57;;;;;;;16.05;4.20;;;;;;;36.35;30.56;97971.56;4966117;28;20458;-64
2023/06/06 08:11:28;;;;;;;11.50;4.10;;;;;;;36.10;29.87;97966.97;4968368;28;20478;-65
2023/06/06 08:13:57;;;;;;;13.60;4.40;;;;;;;36.09;30.83;97976.41;4969928;28;20042;-65
2023/06/06 08:16:27;;;;;;;18.13;4.15;;;;;;;36.05;29.82;97968.09;4960623;28;20046;-66
2023/06/06 08:18:56;;;;;;;14.70;4.47;;;;;;;36.18;31.45;97965.88;4969551;28;20050;-64
2023/06/06 08:21:25;;;;;;;7.70;4.00;;;;;;;36.29;31.33;97964.03;4968953;28;20054;-63
2023/06/06 08:23:55;;;;;;;16.52;4.57;;;;;;;36.32;32.30;97966.81;4965739;28;20043;-65
2023/06/06 08:26:27;;;;;;;13.10;4.07;;;;;;;36.46;31.40;97955.91;4969422;28;20050;-64
2023/06/06 08:28:56;;;;;;;10.63;4.20;;;;;;;36.38;30.11;97950.72;4969760;28;20743;-64
2023/06/06 08:31:29;;;;;;;11.13;4.18;;;;;;;36.41;32.15;97956.28;4969188;28;20133;-68
2023/06/06 08:33:59;;;;;;;12.90;4.45;;;;;;;36.57;33.27;97952.44;4968913;28;20074;-66
2023/06/06 08:36:28;;;;;;;14.02;3.83;;;;;;;36.55;31.61;97950.06;4972127;28;20054;-63
2023/06/06 08:38:58;;;;;;;11.57;4.32;;;;;;;36.55;31.84;97946.53;4963691;28;20466;-62
2023/06/06 08:41:28;;;;;;;11.70;4.40;;;;;;;36.48;31.97;97941.72;4954900;28;20100;-61
2023/06/06 08:44:02;;;;;;;10.82;4.25;;;;;;;36.58;33.93;97935.50;4951796;28;20050;-65
2023/06/06 08:46:33;;;;;;;8.38;3.58;;;;;;;36.57;31.97;97920.13;4967829;28;20108;-65
2023/06/06 08:49:05;;;;;;;14.13;4.05;;;;;;;36.64;31.64;97925.75;4961314;28;20062;-63
2023/06/06 08:51:36;;;;;;;9.55;4.10;;;;;;;36.70;31.48;97915.13;4963134;28;20055;-64
2023/06/06 08:54:05;;;;;;;15.02;4.10;;;;;;;36.56;31.77;97901.97;4968217;28;20101;-63
2023/06/06 08:56:37;;;;;;;12.02;4.22;;;;;;;36.59;31.19;97894.91;4965160;28;20047;-62
2023/06/06 08:59:06;;;;;;;14.73;4.43;;;;;;;36.61;32.44;97898.09;4957397;28;20034;-62
2023/06/06 09:01:37;;;;;;;7.82;4.13;;;;;;;36.25;31.48;97889.50;4967668;28;20137;-61
2023/06/06 09:04:07;;;;;;;13.63;4.25;;;;;;;36.20;32.23;97880.81;4977070;28;20042;-61
2023/06/06 09:06:38;;;;;;;9.23;4.28;;;;;;;36.28;31.70;97868.66;4963395;28;20108;-61
2023/06/06 09:09:09;;;;;;;9.90;4.22;;;;;;;36.16;32.85;97866.22;4976898;28;20433;-61
2023/06/06 09:11:39;;;;;;;8.98;4.13;;;;;;;36.31;32.22;97859.63;4973968;28;20058;-64
2023/06/06 09:14:08;;;;;;;11.93;4.05;;;;;;;36.44;33.52;97858.13;4974126;28;20101;-61
2023/06/06 09:16:39;;;;;;;9.43;4.22;;;;;;;36.31;30.55;97851.34;4967690;28;20074;-62
2023/06/06 09:19:09;;;;;;;14.13;4.00;;;;;;;36.37;32.46;97856.13;4967741;28;20043;-61
2023/06/06 09:21:39;;;;;;;9.98;3.95;;;;;;;36.42;32.48;97855.00;4974908;28;20059;-63
2023/06/06 09:24:08;;;;;;;7.75;3.95;;;;;;;36.29;29.18;97837.94;4967660;28;20050;-60
2023/06/06 09:26:39;;;;;;;10.10;4.03;;;;;;;36.18;31.28;97831.56;4964442;28;20062;-61
2023/06/06 09:29:11;;;;;;;10.35;4.45;;;;;;;36.23;32.87;97835.91;4967429;28;20061;-61
2023/06/06 09:31:42;;;;;;;14.07;4.80;;;;;;;36.37;31.97;97825.78;4967860;28;20066;-61
2023/06/06 09:34:12;;;;;;;11.43;4.78;;;;;;;36.36;33.08;97820.66;4959408;28;20078;-61
2023/06/06 09:36:43;;;;;;;10.65;4.82;;;;;;;36.42;31.84;97819.13;4969006;28;20047;-61
2023/06/06 09:39:15;;;;;;;17.13;5.40;;;;;;;36.39;32.53;97812.38;4961653;28;20057;-60
2023/06/06 09:41:47;;;;;;;20.83;5.75;;;;;;;36.25;31.84;97812.28;4966901;28;20064;-61
2023/06/06 09:44:30;;;;;;;10.27;4.95;;;;;;;36.25;31.43;97803.25;4973019;28;20129;-63
2023/06/06 09:47:02;;;;;;;9.18;4.43;;;;;;;36.28;31.75;97797.75;4973002;28;20577;-61
2023/06/06 09:49:35;;;;;;;11.82;5.22;;;;;;;36.16;31.18;97792.53;4970799;28;20852;-61
2023/06/06 09:52:06;;;;;;;12.00;4.95;;;;;;;35.95;30.47;97789.56;4970681;28;20061;-60
2023/06/06 09:54:42;;;;;;;13.75;4.95;;;;;;;35.88;31.27;97789.53;4953699;28;20066;-61
2023/06/06 09:57:14;;;;;;;18.50;4.88;;;;;;;35.92;31.66;97790.34;4954338;28;20078;-61
2023/06/06 09:59:48;;;;;;;8.32;5.03;;;;;;;36.00;32.30;97781.75;4966511;28;20062;-60
2023/06/06 10:02:19;;;;;;;;;;;;;;;35.90;31.66;97770.63;4967402;28;20150;-63
2023/06/06 10:04:51;;;;;;;13.57;4.93;;;;;;;35.98;31.29;97764.03;4956137;28;19929;-62
2023/06/06 10:07:23;;;;;;;9.85;4.95;;;;;;;36.02;32.04;97762.09;4966931;28;20055;-63
2023/06/06 10:09:52;;;;;;;9.98;4.93;;;;;;;36.07;32.41;97755.41;4967754;28;20039;-64
2023/06/06 10:12:23;;;;;;;18.80;5.43;;;;;;;36.01;32.47;97754.97;4940650;28;20145;-62
2023/06/06 10:14:54;;;;;;;8.38;4.93;;;;;;;36.07;32.79;97741.63;4966758;28;20070;-63
2023/06/06 10:17:27;;;;;;;10.15;5.10;;;;;;;36.01;32.45;97728.19;4953905;28;20078;-63
2023/06/06 10:20:05;;;;;;;15.40;5.20;;;;;;;36.12;31.83;97733.00;4967304;28;20134;-64
2023/06/06 10:22:37;;;;;;;11.45;5.72;;;;;;;36.04;30.80;97712.84;4963315;28;20050;-63
2023/06/06 10:25:11;;;;;;;21.17;5.45;;;;;;;36.13;32.44;97712.53;4968712;28;20505;-66
2023/06/06 10:28:11;;;;;;;13.60;5.13;;;;;;;36.21;32.27;97714.16;4964346;28;20451;-65
2023/06/06 10:30:44;;;;;;;14.18;5.25;;;;;;;36.12;32.77;97719.22;4964363;28;20117;-63
2023/06/06 10:33:38;;;;;;;13.43;5.23;;;;;;;35.95;32.78;97720.66;4963884;28;20138;-65
2023/06/06 10:36:09;;;;;;;10.32;5.28;;;;;;;35.80;31.81;97721.75;4966264;28;20094;-65
2023/06/06 10:38:38;;;;;;;12.48;5.00;;;;;;;35.72;31.34;97726.38;4961498;28;20157;-65
2023/06/06 10:41:18;;;;;;;11.80;5.18;;;;;;;35.75;32.15;97708.31;4965269;28;20047;-63
2023/06/06 10:43:48;;;;;;;15.07;5.13;;;;;;;35.91;33.65;97692.28;4965288;28;20166;-67
2023/06/06 10:46:18;;;;;;;20.85;5.70;;;;;;;35.93;32.86;97689.94;4964905;28;20050;-63
2023/06/06 10:48:55;;;;;;;9.82;5.15;;;;;;;35.90;31.86;97683.22;4965824;28;20129;-67
2023/06/06 10:51:34;;;;;;;16.63;5.00;;;;;;;35.88;33.42;97682.03;4965143;28;20058;-65
2023/06/06 10:54:14;;;;;;;9.80;5.45;;;;;;;35.82;33.12;97672.53;4955287;28;20047;-68
2023/06/06 10:56:45;;;;;;;20.38;5.22;;;;;;;35.64;33.39;97663.31;4952423;28;20059;-64
2023/06/06 10:59:16;;;;;;;23.90;6.53;;;;;;;35.49;34.06;97667.94;4966052;28;20128;-65
2023/06/06 11:01:46;;;;;;;16.20;5.28;;;;;;;35.42;33.68;97668.66;4968885;28;20170;-64
2023/06/06 11:04:23;;;;;;;21.52;5.93;;;;;;;35.33;33.31;97667.41;4967971;28;20090;-62
2023/06/06 11:06:58;;;;;;;13.50;5.40;;;;;;;35.24;33.96;97672.44;4959881;28;20058;-66
2023/06/06 11:09:32;;;;;;;18.75;5.45;;;;;;;35.21;33.05;97674.00;4962093;28;20142;-62
2023/06/06 11:12:28;;;;;;;14.52;5.80;;;;;;;35.15;33.67;97672.72;4968322;28;20057;-65
2023/06/06 11:15:01;;;;;;;14.95;4.85;;;;;;;35.05;34.39;97659.66;4957728;28;20057;-61
2023/06/06 11:17:53;;;;;;;;;;;;;;;34.98;33.92;97659.56;4966005;28;20054;-61
2023/06/06 11:20:29;;;;;;;11.82;4.90;;;;;;;34.94;34.09;97653.25;4944495;28;19945;-60
2023/06/06 11:23:05;;;;;;;16.48;5.90;;;;;;;34.88;34.25;97650.03;4969762;28;20043;-65
2023/06/06 11:25:41;;;;;;;17.30;5.38;;;;;;;34.03;41.46;97659.97;4968252;28;20708;-60
2023/06/06 11:28:10;;;;;;;10.93;4.78;;;;;;;33.35;41.96;97662.81;4960332;28;20038;-65
2023/06/06 11:30:40;;;;;;;12.27;5.60;;;;;;;32.96;43.59;97665.63;4973213;28;20526;-69
2023/06/06 11:33:10;;;;;;;13.20;4.90;;;;;;;32.63;43.48;97659.91;4976034;28;20054;-63
2023/06/06 11:35:40;;;;;;;12.80;4.80;;;;;;;32.43;44.51;97663.78;4950789;28;20050;-59
2023/06/06 11:38:09;;;;;;;12.70;4.80;;;;;;;32.32;43.47;97679.19;4975929;28;20050;-61
2023/06/06 11:40:39;;;;;;;15.48;6.50;;;;;;;32.18;45.00;97696.13;4970738;28;20381;-63
2023/06/06 11:43:08;;;;;;;12.95;4.47;;;;;;;32.08;44.75;97708.44;4974180;28;20141;-62
2023/06/06 11:45:38;;;;;;;12.32;4.45;;;;;;;31.84;42.52;97737.97;4977447;28;20058;-58
2023/06/06 11:48:26;;;;;;;32.00;6.20;;;;;;;31.11;46.61;97716.56;4978000;28;20105;-58